createdAt,value
2018-03-28T00:00:15.616Z,1028.91
2018-03-28T00:01:15.603Z,1028.89
2018-03-28T00:02:15.594Z,1028.87
2018-03-28T00:03:15.572Z,1028.9
2018-03-28T00:04:15.602Z,1028.87
2018-03-28T00:05:15.542Z,1028.85
2018-03-28T00:06:15.532Z,1028.84
2018-03-28T00:07:15.514Z,1028.86
2018-03-28T00:08:15.504Z,1028.78
2018-03-28T00:09:15.493Z,1028.82
2018-03-28T00:10:15.471Z,1028.84
2018-03-28T00:11:15.456Z,1028.84
2018-03-28T00:12:15.442Z,1028.85
2018-03-28T00:13:15.429Z,1028.82
2018-03-28T00:14:15.417Z,1028.75
2018-03-28T00:15:15.399Z,1028.75
2018-03-28T00:16:15.388Z,1028.74
2018-03-28T00:17:15.371Z,1028.7
2018-03-28T00:18:15.357Z,1028.67
2018-03-28T00:19:15.342Z,1028.68
2018-03-28T00:20:15.328Z,1028.67
2018-03-28T00:21:15.314Z,1028.62
2018-03-28T00:22:15.299Z,1028.6
2018-03-28T00:23:15.285Z,1028.59
2018-03-28T00:24:15.271Z,1028.54
2018-03-28T00:25:15.257Z,1028.49
2018-03-28T00:26:15.242Z,1028.4
2018-03-28T00:27:15.228Z,1028.37
2018-03-28T00:28:15.213Z,1028.35
2018-03-28T00:29:15.200Z,1028.33
2018-03-28T00:30:15.188Z,1028.32
2018-03-28T00:31:15.171Z,1028.34
2018-03-28T00:32:15.156Z,1028.35
2018-03-28T00:33:15.141Z,1028.33
2018-03-28T00:34:15.127Z,1028.39
2018-03-28T00:35:15.113Z,1028.39
2018-03-28T00:36:15.098Z,1028.38
2018-03-28T00:37:15.084Z,1028.38
2018-03-28T00:38:15.069Z,1028.4
2018-03-28T00:39:15.056Z,1028.38
2018-03-28T00:40:15.042Z,1028.39
2018-03-28T00:41:15.028Z,1028.35
2018-03-28T00:42:15.014Z,1028.4
2018-03-28T00:43:14.999Z,1028.38
2018-03-28T00:44:14.985Z,1028.37
2018-03-28T00:45:14.970Z,1028.38
2018-03-28T00:46:14.956Z,1028.35
2018-03-28T00:47:14.945Z,1028.38
2018-03-28T00:48:14.927Z,1028.39
2018-03-28T00:49:14.914Z,1028.4
2018-03-28T00:50:14.898Z,1028.36
2018-03-28T00:51:14.883Z,1028.39
2018-03-28T00:52:14.870Z,1028.39
2018-03-28T00:53:14.857Z,1028.38
2018-03-28T00:54:14.886Z,1028.38
2018-03-28T00:55:14.827Z,1028.33
2018-03-28T00:56:14.861Z,1028.28
2018-03-28T00:57:14.798Z,1028.26
2018-03-28T00:58:14.784Z,1028.23
2018-03-28T00:59:14.769Z,1028.22
2018-03-28T01:00:14.755Z,1028.23
2018-03-28T01:01:14.741Z,1028.2
2018-03-28T01:02:14.725Z,1028.2
2018-03-28T01:03:14.711Z,1028.22
2018-03-28T01:04:14.697Z,1028.22
2018-03-28T01:05:14.682Z,1028.21
2018-03-28T01:06:14.667Z,1028.25
2018-03-28T01:07:14.653Z,1028.23
2018-03-28T01:08:14.639Z,1028.23
2018-03-28T01:09:14.629Z,1028.19
2018-03-28T01:10:14.609Z,1028.14
2018-03-28T01:11:14.596Z,1028.17
2018-03-28T01:12:14.582Z,1028.12
2018-03-28T01:13:14.565Z,1028.1
2018-03-28T01:14:14.808Z,1028.11
2018-03-28T01:15:14.537Z,1028.08
2018-03-28T01:16:14.523Z,1028.07
2018-03-28T01:17:14.508Z,1028.04
2018-03-28T01:18:14.493Z,1027.96
2018-03-28T01:19:14.481Z,1027.99
2018-03-28T01:20:14.465Z,1027.95
2018-03-28T01:21:14.450Z,1027.9
2018-03-28T01:22:14.436Z,1027.89
2018-03-28T01:23:14.421Z,1027.87
2018-03-28T01:24:14.407Z,1027.82
2018-03-28T01:25:14.392Z,1027.79
2018-03-28T01:26:14.378Z,1027.75
2018-03-28T01:27:14.364Z,1027.73
2018-03-28T01:28:14.353Z,1027.61
2018-03-28T01:29:14.338Z,1027.6
2018-03-28T01:30:14.322Z,1027.59
2018-03-28T01:31:14.317Z,1027.6
2018-03-28T01:32:14.297Z,1027.63
2018-03-28T01:33:14.278Z,1027.62
2018-03-28T01:34:14.266Z,1027.61
2018-03-28T01:35:14.248Z,1027.63
2018-03-28T01:36:14.234Z,1027.6
2018-03-28T01:37:14.220Z,1027.57
2018-03-28T01:38:14.206Z,1027.53
2018-03-28T01:39:14.191Z,1027.44
2018-03-28T01:40:14.177Z,1027.44
2018-03-28T01:41:14.163Z,1027.42
2018-03-28T01:42:14.148Z,1027.43
2018-03-28T01:43:14.134Z,1027.41
2018-03-28T01:44:14.122Z,1027.4
2018-03-28T01:45:14.106Z,1027.37
2018-03-28T01:46:14.102Z,1027.4
2018-03-28T01:47:14.077Z,1027.34
2018-03-28T01:48:14.080Z,1027.34
2018-03-28T01:49:14.049Z,1027.31
2018-03-28T01:50:14.078Z,1027.28
2018-03-28T01:51:14.025Z,1027.29
2018-03-28T01:52:14.008Z,1027.27
2018-03-28T01:53:13.992Z,1027.3
2018-03-28T01:54:13.980Z,1027.32
2018-03-28T01:55:13.963Z,1027.28
2018-03-28T01:56:13.954Z,1027.34
2018-03-28T01:57:13.934Z,1027.32
2018-03-28T01:58:13.920Z,1027.29
2018-03-28T01:59:13.906Z,1027.33
2018-03-28T02:00:13.892Z,1027.29
2018-03-28T02:01:13.878Z,1027.3
2018-03-28T02:02:13.864Z,1027.24
2018-03-28T02:03:13.850Z,1027.22
2018-03-28T02:04:13.836Z,1027.13
2018-03-28T02:05:13.821Z,1027.15
2018-03-28T02:06:13.807Z,1027.1
2018-03-28T02:07:13.794Z,1027.08
2018-03-28T02:08:13.778Z,1027.06
2018-03-28T02:09:13.765Z,1027.02
2018-03-28T02:10:13.751Z,1027
2018-03-28T02:11:13.738Z,1027
2018-03-28T02:12:13.723Z,1026.92
2018-03-28T02:13:13.710Z,1026.91
2018-03-28T02:14:13.695Z,1026.87
2018-03-28T02:15:13.681Z,1026.87
2018-03-28T02:16:13.667Z,1026.84
2018-03-28T02:17:13.653Z,1026.8
2018-03-28T02:18:13.639Z,1026.76
2018-03-28T02:19:13.624Z,1026.76
2018-03-28T02:20:13.611Z,1026.73
2018-03-28T02:21:13.597Z,1026.7
2018-03-28T02:22:13.583Z,1026.71
2018-03-28T02:23:13.569Z,1026.71
2018-03-28T02:24:13.555Z,1026.73
2018-03-28T02:25:13.541Z,1026.69
2018-03-28T02:26:13.526Z,1026.65
2018-03-28T02:27:13.512Z,1026.62
2018-03-28T02:28:13.499Z,1026.59
2018-03-28T02:29:13.485Z,1026.57
2018-03-28T02:30:13.470Z,1026.55
2018-03-28T02:31:13.457Z,1026.51
2018-03-28T02:32:13.444Z,1026.48
2018-03-28T02:33:13.429Z,1026.44
2018-03-28T02:34:13.416Z,1026.45
2018-03-28T02:35:13.401Z,1026.4
2018-03-28T02:36:13.386Z,1026.41
2018-03-28T02:37:13.372Z,1026.4
2018-03-28T02:38:13.359Z,1026.39
2018-03-28T02:39:13.345Z,1026.32
2018-03-28T02:40:13.341Z,1026.32
2018-03-28T02:41:13.316Z,1026.32
2018-03-28T02:42:13.303Z,1026.33
2018-03-28T02:43:13.290Z,1026.31
2018-03-28T02:44:13.275Z,1026.3
2018-03-28T02:45:13.261Z,1026.33
2018-03-28T02:46:13.249Z,1026.32
2018-03-28T02:47:13.234Z,1026.32
2018-03-28T02:48:13.219Z,1026.29
2018-03-28T02:49:13.208Z,1026.3
2018-03-28T02:50:13.192Z,1026.27
2018-03-28T02:51:13.179Z,1026.28
2018-03-28T02:52:13.165Z,1026.27
2018-03-28T02:53:13.151Z,1026.25
2018-03-28T02:54:13.138Z,1026.23
2018-03-28T02:55:13.123Z,1026.24
2018-03-28T02:56:13.110Z,1026.24
2018-03-28T02:57:13.095Z,1026.23
2018-03-28T02:58:13.082Z,1026.23
2018-03-28T02:59:13.068Z,1026.23
2018-03-28T03:00:13.060Z,1026.23
2018-03-28T03:01:13.042Z,1026.16
2018-03-28T03:02:13.033Z,1026.19
2018-03-28T03:03:13.012Z,1026.14
2018-03-28T03:04:12.998Z,1026.13
2018-03-28T03:05:12.986Z,1026.14
2018-03-28T03:06:12.972Z,1026.09
2018-03-28T03:07:12.964Z,1026.06
2018-03-28T03:08:12.943Z,1026.03
2018-03-28T03:09:12.935Z,1026.03
2018-03-28T03:10:12.915Z,1025.99
2018-03-28T03:11:12.902Z,1026.01
2018-03-28T03:12:12.889Z,1025.93
2018-03-28T03:13:12.875Z,1025.97
2018-03-28T03:14:12.861Z,1025.91
2018-03-28T03:15:12.847Z,1025.98
2018-03-28T03:16:12.833Z,1025.96
2018-03-28T03:17:12.822Z,1025.92
2018-03-28T03:18:12.807Z,1025.99
2018-03-28T03:19:12.794Z,1026
2018-03-28T03:20:12.778Z,1025.93
2018-03-28T03:21:12.765Z,1025.9
2018-03-28T03:22:12.751Z,1025.91
2018-03-28T03:23:12.738Z,1025.9
2018-03-28T03:24:12.726Z,1025.86
2018-03-28T03:25:12.710Z,1025.84
2018-03-28T03:26:12.698Z,1025.83
2018-03-28T03:27:12.683Z,1025.83
2018-03-28T03:28:12.674Z,1025.85
2018-03-28T03:29:12.655Z,1025.89
2018-03-28T03:30:12.643Z,1025.84
2018-03-28T03:31:12.630Z,1025.89
2018-03-28T03:32:12.615Z,1025.88
2018-03-28T03:33:12.600Z,1025.88
2018-03-28T03:34:12.587Z,1025.87
2018-03-28T03:35:12.574Z,1025.84
2018-03-28T03:36:12.560Z,1025.82
2018-03-28T03:37:12.546Z,1025.8
2018-03-28T03:38:12.540Z,1025.84
2018-03-28T03:39:12.520Z,1025.79
2018-03-28T03:40:12.505Z,1025.81
2018-03-28T03:41:12.493Z,1025.82
2018-03-28T03:42:12.479Z,1025.78
2018-03-28T03:43:12.465Z,1025.8
2018-03-28T03:44:12.451Z,1025.83
2018-03-28T03:45:12.438Z,1025.91
2018-03-28T03:46:12.425Z,1025.97
2018-03-28T03:47:12.410Z,1025.91
2018-03-28T03:48:12.397Z,1025.89
2018-03-28T03:49:12.384Z,1025.92
2018-03-28T03:50:12.621Z,1025.9
2018-03-28T03:51:12.364Z,1025.87
2018-03-28T03:52:12.344Z,1025.81
2018-03-28T03:53:12.330Z,1025.82
2018-03-28T03:54:12.323Z,1025.82
2018-03-28T03:55:12.305Z,1025.89
2018-03-28T03:56:12.295Z,1025.86
2018-03-28T03:57:12.276Z,1025.85
2018-03-28T03:58:12.262Z,1025.91
2018-03-28T03:59:12.249Z,1025.88
2018-03-28T04:00:12.235Z,1025.88
2018-03-28T04:01:12.222Z,1025.9
2018-03-28T04:02:12.207Z,1025.86
2018-03-28T04:03:12.193Z,1025.81
2018-03-28T04:04:12.181Z,1025.78
2018-03-28T04:05:12.166Z,1025.81
2018-03-28T04:06:12.157Z,1025.78
2018-03-28T04:07:12.139Z,1025.79
2018-03-28T04:08:12.126Z,1025.82
2018-03-28T04:09:12.113Z,1025.82
2018-03-28T04:10:12.099Z,1025.78
2018-03-28T04:11:12.088Z,1025.77
2018-03-28T04:12:12.071Z,1025.71
2018-03-28T04:13:12.058Z,1025.72
2018-03-28T04:14:12.044Z,1025.66
2018-03-28T04:15:12.031Z,1025.63
2018-03-28T04:16:12.020Z,1025.6
2018-03-28T04:17:12.003Z,1025.65
2018-03-28T04:18:11.990Z,1025.6
2018-03-28T04:19:11.976Z,1025.62
2018-03-28T04:20:11.963Z,1025.58
2018-03-28T04:21:12.202Z,1025.55
2018-03-28T04:22:11.935Z,1025.58
2018-03-28T04:23:11.924Z,1025.61
2018-03-28T04:24:11.909Z,1025.66
2018-03-28T04:25:11.895Z,1025.61
2018-03-28T04:26:11.883Z,1025.61
2018-03-28T04:27:11.867Z,1025.61
2018-03-28T04:28:11.854Z,1025.57
2018-03-28T04:29:11.841Z,1025.49
2018-03-28T04:30:11.828Z,1025.47
2018-03-28T04:31:11.813Z,1025.46
2018-03-28T04:32:11.801Z,1025.42
2018-03-28T04:33:11.787Z,1025.37
2018-03-28T04:34:11.773Z,1025.37
2018-03-28T04:35:11.761Z,1025.37
2018-03-28T04:36:11.746Z,1025.35
2018-03-28T04:37:11.733Z,1025.4
2018-03-28T04:38:11.719Z,1025.45
2018-03-28T04:39:11.705Z,1025.38
2018-03-28T04:40:11.692Z,1025.36
2018-03-28T04:41:11.679Z,1025.37
2018-03-28T04:42:11.666Z,1025.36
2018-03-28T04:43:11.652Z,1025.36
2018-03-28T04:44:11.639Z,1025.34
2018-03-28T04:45:11.628Z,1025.33
2018-03-28T04:46:11.613Z,1025.32
2018-03-28T04:47:11.601Z,1025.32
2018-03-28T04:48:11.585Z,1025.3
2018-03-28T04:49:11.571Z,1025.33
2018-03-28T04:50:11.559Z,1025.36
2018-03-28T04:51:11.545Z,1025.43
2018-03-28T04:52:11.531Z,1025.48
2018-03-28T04:53:11.517Z,1025.51
2018-03-28T04:54:11.505Z,1025.52
2018-03-28T04:55:11.490Z,1025.51
2018-03-28T04:56:11.477Z,1025.51
2018-03-28T04:57:11.463Z,1025.48
2018-03-28T04:58:11.449Z,1025.5
2018-03-28T04:59:11.437Z,1025.5
2018-03-28T05:00:11.422Z,1025.55
2018-03-28T05:01:11.409Z,1025.57
2018-03-28T05:02:11.398Z,1025.57
2018-03-28T05:03:11.383Z,1025.59
2018-03-28T05:04:11.374Z,1025.58
2018-03-28T05:05:11.355Z,1025.58
2018-03-28T05:06:11.342Z,1025.58
2018-03-28T05:07:11.328Z,1025.58
2018-03-28T05:08:11.314Z,1025.55
2018-03-28T05:09:11.301Z,1025.52
2018-03-28T05:10:11.288Z,1025.5
2018-03-28T05:11:11.274Z,1025.53
2018-03-28T05:12:11.260Z,1025.51
2018-03-28T05:13:11.247Z,1025.47
2018-03-28T05:14:11.234Z,1025.45
2018-03-28T05:15:11.219Z,1025.48
2018-03-28T05:16:11.207Z,1025.47
2018-03-28T05:17:11.192Z,1025.43
2018-03-28T05:18:11.178Z,1025.43
2018-03-28T05:19:11.165Z,1025.48
2018-03-28T05:20:11.152Z,1025.45
2018-03-28T05:21:11.139Z,1025.5
2018-03-28T05:22:11.130Z,1025.47
2018-03-28T05:23:11.110Z,1025.51
2018-03-28T05:24:11.097Z,1025.49
2018-03-28T05:25:11.084Z,1025.46
2018-03-28T05:26:11.071Z,1025.49
2018-03-28T05:27:11.057Z,1025.45
2018-03-28T05:28:11.047Z,1025.53
2018-03-28T05:29:11.030Z,1025.61
2018-03-28T05:30:11.021Z,1025.63
2018-03-28T05:31:11.009Z,1025.74
2018-03-28T05:32:10.992Z,1025.75
2018-03-28T05:33:10.975Z,1025.78
2018-03-28T05:34:10.962Z,1025.84
2018-03-28T05:35:10.949Z,1025.87
2018-03-28T05:36:10.936Z,1025.93
2018-03-28T05:37:10.922Z,1025.93
2018-03-28T05:38:10.909Z,1026.01
2018-03-28T05:39:10.895Z,1025.97
2018-03-28T05:40:10.881Z,1026.05
2018-03-28T05:41:10.867Z,1026.03
2018-03-28T05:42:10.854Z,1026.04
2018-03-28T05:43:10.849Z,1025.99
2018-03-28T05:44:10.842Z,1025.98
2018-03-28T05:45:10.814Z,1025.99
2018-03-28T05:46:10.799Z,1025.95
2018-03-28T05:47:10.785Z,1025.93
2018-03-28T05:48:10.771Z,1025.96
2018-03-28T05:49:10.758Z,1026.06
2018-03-28T05:50:10.745Z,1026.09
2018-03-28T05:51:10.731Z,1026.13
2018-03-28T05:52:10.722Z,1026.15
2018-03-28T05:53:10.704Z,1026.19
2018-03-28T05:54:10.690Z,1026.2
2018-03-28T05:55:10.676Z,1026.19
2018-03-28T05:56:10.663Z,1026.28
2018-03-28T05:57:10.649Z,1026.34
2018-03-28T05:58:10.635Z,1026.38
2018-03-28T05:59:10.626Z,1026.39
2018-03-28T06:00:10.608Z,1026.38
2018-03-28T06:01:10.594Z,1026.37
2018-03-28T06:02:10.583Z,1026.32
2018-03-28T06:03:10.566Z,1026.25
2018-03-28T06:04:10.553Z,1026.23
2018-03-28T06:05:10.539Z,1026.23
2018-03-28T06:06:10.524Z,1026.31
2018-03-28T06:07:10.511Z,1026.36
2018-03-28T06:08:10.497Z,1026.33
2018-03-28T06:09:10.482Z,1026.36
2018-03-28T06:10:10.478Z,1026.38
2018-03-28T06:11:10.455Z,1026.4
2018-03-28T06:12:10.443Z,1026.38
2018-03-28T06:13:10.427Z,1026.45
2018-03-28T06:14:10.419Z,1026.5
2018-03-28T06:15:10.400Z,1026.52
2018-03-28T06:16:10.386Z,1026.64
2018-03-28T06:17:10.372Z,1026.64
2018-03-28T06:18:10.361Z,1026.65
2018-03-28T06:19:10.355Z,1026.66
2018-03-28T06:20:10.329Z,1026.64
2018-03-28T06:21:10.316Z,1026.69
2018-03-28T06:22:10.302Z,1026.66
2018-03-28T06:23:10.288Z,1026.66
2018-03-28T06:24:10.322Z,1026.61
2018-03-28T06:25:10.259Z,1026.61
2018-03-28T06:26:10.245Z,1026.61
2018-03-28T06:27:10.232Z,1026.59
2018-03-28T06:28:10.216Z,1026.62
2018-03-28T06:29:10.202Z,1026.51
2018-03-28T06:30:10.189Z,1026.52
2018-03-28T06:31:10.172Z,1026.49
2018-03-28T06:32:10.159Z,1026.46
2018-03-28T06:33:10.144Z,1026.43
2018-03-28T06:34:10.131Z,1026.41
2018-03-28T06:35:10.117Z,1026.37
2018-03-28T06:36:10.105Z,1026.32
2018-03-28T06:37:10.087Z,1026.34
2018-03-28T06:38:10.074Z,1026.28
2018-03-28T06:39:10.058Z,1026.25
2018-03-28T06:40:10.044Z,1026.25
2018-03-28T06:41:10.029Z,1026.26
2018-03-28T06:42:10.014Z,1026.29
2018-03-28T06:43:09.999Z,1026.35
2018-03-28T06:44:09.989Z,1026.33
2018-03-28T06:45:09.970Z,1026.41
2018-03-28T06:46:09.956Z,1026.39
2018-03-28T06:47:09.949Z,1026.35
2018-03-28T06:48:09.927Z,1026.39
2018-03-28T06:49:09.915Z,1026.41
2018-03-28T06:50:09.899Z,1026.34
2018-03-28T06:51:09.887Z,1026.34
2018-03-28T06:52:09.869Z,1026.3
2018-03-28T06:53:09.854Z,1026.25
2018-03-28T06:54:09.842Z,1026.29
2018-03-28T06:55:09.827Z,1026.29
2018-03-28T06:56:09.811Z,1026.22
2018-03-28T06:57:09.796Z,1026.2
2018-03-28T06:58:09.781Z,1026.2
2018-03-28T06:59:09.766Z,1026.21
2018-03-28T07:00:09.752Z,1026.23
2018-03-28T07:01:09.740Z,1026.25
2018-03-28T07:02:09.723Z,1026.25
2018-03-28T07:03:09.710Z,1026.3
2018-03-28T07:04:09.695Z,1026.29
2018-03-28T07:05:09.679Z,1026.32
2018-03-28T07:06:09.665Z,1026.39
2018-03-28T07:07:09.651Z,1026.42
2018-03-28T07:08:09.638Z,1026.48
2018-03-28T07:09:09.620Z,1026.49
2018-03-28T07:10:09.607Z,1026.47
2018-03-28T07:11:09.592Z,1026.51
2018-03-28T07:12:09.576Z,1026.47
2018-03-28T07:13:09.563Z,1026.55
2018-03-28T07:14:09.547Z,1026.56
2018-03-28T07:15:09.532Z,1026.49
2018-03-28T07:16:09.524Z,1026.47
2018-03-28T07:17:09.511Z,1026.51
2018-03-28T07:18:09.489Z,1026.46
2018-03-28T07:19:09.473Z,1026.47
2018-03-28T07:20:09.459Z,1026.46
2018-03-28T07:21:09.444Z,1026.46
2018-03-28T07:22:09.452Z,1026.42
2018-03-28T07:23:09.432Z,1026.39
2018-03-28T07:24:09.401Z,1026.4
2018-03-28T07:25:09.387Z,1026.39
2018-03-28T07:26:09.370Z,1026.31
2018-03-28T07:27:09.360Z,1026.28
2018-03-28T07:28:10.144Z,1026.25
2018-03-28T07:29:09.331Z,1026.29
2018-03-28T07:30:09.312Z,1026.21
2018-03-28T07:31:09.319Z,1026.22
2018-03-28T07:32:09.289Z,1026.15
2018-03-28T07:33:09.268Z,1026.16
2018-03-28T07:34:09.257Z,1026.15
2018-03-28T07:35:09.240Z,1026.11
2018-03-28T07:36:09.229Z,1026.13
2018-03-28T07:37:09.210Z,1026.17
2018-03-28T07:38:09.196Z,1026.17
2018-03-28T07:39:09.181Z,1026.16
2018-03-28T07:40:09.167Z,1026.16
2018-03-28T07:41:09.173Z,1026.17
2018-03-28T07:42:09.137Z,1026.21
2018-03-28T07:43:09.129Z,1026.21
2018-03-28T07:44:09.109Z,1026.18
2018-03-28T07:45:09.099Z,1026.23
2018-03-28T07:46:09.083Z,1026.19
2018-03-28T07:47:09.065Z,1026.25
2018-03-28T07:48:09.205Z,1026.18
2018-03-28T07:49:09.048Z,1026.17
2018-03-28T07:50:09.036Z,1026.17
2018-03-28T07:51:09.023Z,1026.16
2018-03-28T07:52:09.010Z,1026.12
2018-03-28T07:53:08.986Z,1026.12
2018-03-28T07:54:08.975Z,1026.13
2018-03-28T07:55:08.955Z,1026.1
2018-03-28T07:56:08.944Z,1026.1
2018-03-28T07:57:08.927Z,1026.08
2018-03-28T07:58:08.907Z,1025.97
2018-03-28T07:59:08.894Z,1025.99
2018-03-28T08:00:08.878Z,1025.92
2018-03-28T08:01:08.863Z,1025.99
2018-03-28T08:02:08.864Z,1025.92
2018-03-28T08:03:08.835Z,1025.93
2018-03-28T08:04:08.821Z,1025.99
2018-03-28T08:05:08.809Z,1025.98
2018-03-28T08:06:08.795Z,1025.94
2018-03-28T08:07:08.782Z,1025.95
2018-03-28T08:08:08.765Z,1025.97
2018-03-28T08:09:08.747Z,1025.94
2018-03-28T08:10:08.732Z,1025.99
2018-03-28T08:11:08.736Z,1025.98
2018-03-28T08:12:08.703Z,1026.04
2018-03-28T08:13:08.705Z,1026.05
2018-03-28T08:14:08.690Z,1026.06
2018-03-28T08:15:08.659Z,1026.07
2018-03-28T08:16:08.652Z,1026.07
2018-03-28T08:17:08.635Z,1026.12
2018-03-28T08:18:08.616Z,1026.14
2018-03-28T08:19:08.601Z,1026.12
2018-03-28T08:20:08.600Z,1026.06
2018-03-28T08:21:08.571Z,1026.03
2018-03-28T08:22:08.556Z,1026.01
2018-03-28T08:23:08.551Z,1026.04
2018-03-28T08:24:08.529Z,1026.02
2018-03-28T08:25:08.512Z,1026.09
2018-03-28T08:26:08.497Z,1026.12
2018-03-28T08:27:08.483Z,1026.04
2018-03-28T08:28:08.468Z,1026.09
2018-03-28T08:29:08.460Z,1026.04
2018-03-28T08:30:08.439Z,1025.98
2018-03-28T08:31:08.425Z,1026.04
2018-03-28T08:32:08.422Z,1026.05
2018-03-28T08:33:08.395Z,1025.97
2018-03-28T08:34:08.381Z,1026.02
2018-03-28T08:35:08.366Z,1025.94
2018-03-28T08:36:08.352Z,1025.87
2018-03-28T08:37:08.338Z,1025.89
2018-03-28T08:38:08.322Z,1025.84
2018-03-28T08:39:08.311Z,1025.78
2018-03-28T08:40:08.295Z,1025.75
2018-03-28T08:41:08.278Z,1025.74
2018-03-28T08:42:08.264Z,1025.66
2018-03-28T08:43:08.250Z,1025.66
2018-03-28T08:44:08.235Z,1025.65
2018-03-28T08:45:08.220Z,1025.52
2018-03-28T08:46:08.204Z,1025.42
2018-03-28T08:47:08.193Z,1025.47
2018-03-28T08:48:08.176Z,1025.44
2018-03-28T08:49:08.162Z,1025.41
2018-03-28T08:50:08.147Z,1025.33
2018-03-28T08:51:08.131Z,1025.36
2018-03-28T08:52:08.169Z,1025.32
2018-03-28T08:53:08.106Z,1025.33
2018-03-28T08:54:08.088Z,1025.29
2018-03-28T08:55:08.086Z,1025.3
2018-03-28T08:56:08.063Z,1025.28
2018-03-28T08:57:08.044Z,1025.25
2018-03-28T08:58:08.030Z,1025.16
2018-03-28T08:59:08.017Z,1025.12
2018-03-28T09:00:08.027Z,1025.09
2018-03-28T09:01:07.987Z,1025.02
2018-03-28T09:02:07.974Z,1025.02
2018-03-28T09:03:07.958Z,1024.96
2018-03-28T09:04:07.950Z,1024.95
2018-03-28T09:05:07.929Z,1024.89
2018-03-28T09:06:07.915Z,1024.95
2018-03-28T09:07:07.905Z,1024.83
2018-03-28T09:08:07.887Z,1024.82
2018-03-28T09:09:07.873Z,1024.86
2018-03-28T09:10:07.866Z,1024.81
2018-03-28T09:11:07.847Z,1024.78
2018-03-28T09:12:07.830Z,1024.8
2018-03-28T09:13:07.816Z,1024.68
2018-03-28T09:14:07.804Z,1024.69
2018-03-28T09:15:07.789Z,1024.69
2018-03-28T09:16:07.776Z,1024.72
2018-03-28T09:17:07.760Z,1024.64
2018-03-28T09:18:07.750Z,1024.58
2018-03-28T09:19:07.737Z,1024.58
2018-03-28T09:20:07.718Z,1024.51
2018-03-28T09:21:07.708Z,1024.44
2018-03-28T09:22:07.693Z,1024.4
2018-03-28T09:23:07.680Z,1024.41
2018-03-28T09:24:07.663Z,1024.38
2018-03-28T09:25:07.650Z,1024.5
2018-03-28T09:26:07.647Z,1024.36
2018-03-28T09:27:07.622Z,1024.28
2018-03-28T09:28:07.613Z,1024.3
2018-03-28T09:29:07.596Z,1024.26
2018-03-28T09:30:07.579Z,1024.29
2018-03-28T09:31:07.566Z,1024.36
2018-03-28T09:32:07.552Z,1024.32
2018-03-28T09:33:07.538Z,1024.39
2018-03-28T09:34:07.524Z,1024.33
2018-03-28T09:35:07.511Z,1024.31
2018-03-28T09:36:07.500Z,1024.33
2018-03-28T09:37:07.483Z,1024.32
2018-03-28T09:38:07.469Z,1024.35
2018-03-28T09:39:07.457Z,1024.37
2018-03-28T09:40:07.448Z,1024.27
2018-03-28T09:41:07.432Z,1024.32
2018-03-28T09:42:07.413Z,1024.35
2018-03-28T09:43:07.402Z,1024.29
2018-03-28T09:44:07.401Z,1024.33
2018-03-28T09:45:07.372Z,1024.44
2018-03-28T09:46:07.358Z,1024.46
2018-03-28T09:47:07.345Z,1024.47
2018-03-28T09:48:07.331Z,1024.49
2018-03-28T09:49:07.317Z,1024.5
2018-03-28T09:50:07.305Z,1024.51
2018-03-28T09:51:07.289Z,1024.59
2018-03-28T09:52:07.275Z,1024.53
2018-03-28T09:53:07.262Z,1024.5
2018-03-28T09:54:07.253Z,1024.49
2018-03-28T09:55:07.233Z,1024.46
2018-03-28T09:56:07.274Z,1024.39
2018-03-28T09:57:07.204Z,1024.31
2018-03-28T09:58:07.191Z,1024.23
2018-03-28T09:59:07.180Z,1024.2
2018-03-28T10:00:07.163Z,1024.16
2018-03-28T10:01:07.154Z,1024.1
2018-03-28T10:02:07.135Z,1024.1
2018-03-28T10:03:07.122Z,1024.05
2018-03-28T10:04:07.357Z,1024.06
2018-03-28T10:05:07.094Z,1024.05
2018-03-28T10:06:07.082Z,1024.01
2018-03-28T10:07:07.070Z,1024.03
2018-03-28T10:08:07.055Z,1024.03
2018-03-28T10:09:07.038Z,1024.01
2018-03-28T10:10:07.039Z,1023.95
2018-03-28T10:11:07.010Z,1023.93
2018-03-28T10:12:07.006Z,1023.87
2018-03-28T10:13:06.989Z,1023.8
2018-03-28T10:14:06.984Z,1023.82
2018-03-28T10:15:06.958Z,1023.9
2018-03-28T10:16:06.942Z,1023.84
2018-03-28T10:17:06.928Z,1023.83
2018-03-28T10:18:06.968Z,1023.92
2018-03-28T10:19:06.900Z,1023.94
2018-03-28T10:20:06.886Z,1023.99
2018-03-28T10:21:06.877Z,1024.07
2018-03-28T10:22:06.858Z,1024.09
2018-03-28T10:23:06.845Z,1024.15
2018-03-28T10:24:06.832Z,1024.19
2018-03-28T10:25:06.817Z,1024.21
2018-03-28T10:26:06.804Z,1024.31
2018-03-28T10:27:06.790Z,1024.34
2018-03-28T10:28:06.780Z,1024.39
2018-03-28T10:29:06.771Z,1024.4
2018-03-28T10:30:06.749Z,1024.39
2018-03-28T10:31:06.735Z,1024.39
2018-03-28T10:32:06.721Z,1024.37
2018-03-28T10:33:06.719Z,1024.38
2018-03-28T10:34:06.698Z,1024.26
2018-03-28T10:35:06.682Z,1024.19
2018-03-28T10:36:06.665Z,1024.2
2018-03-28T10:37:06.652Z,1024.15
2018-03-28T10:38:06.640Z,1024.23
2018-03-28T10:39:06.637Z,1024.28
2018-03-28T10:40:06.609Z,1024.31
2018-03-28T10:41:06.595Z,1024.3
2018-03-28T10:42:06.583Z,1024.4
2018-03-28T10:43:06.568Z,1024.42
2018-03-28T10:44:06.554Z,1024.47
2018-03-28T10:45:06.542Z,1024.47
2018-03-28T10:46:06.531Z,1024.45
2018-03-28T10:47:06.512Z,1024.51
2018-03-28T10:48:06.498Z,1024.5
2018-03-28T10:49:06.489Z,1024.46
2018-03-28T10:50:06.474Z,1024.5
2018-03-28T10:51:06.456Z,1024.46
2018-03-28T10:52:06.446Z,1024.39
2018-03-28T10:53:06.431Z,1024.36
2018-03-28T10:54:06.420Z,1024.37
2018-03-28T10:55:06.400Z,1024.35
2018-03-28T10:56:06.386Z,1024.38
2018-03-28T10:57:06.378Z,1024.36
2018-03-28T10:58:06.388Z,1024.35
2018-03-28T10:59:06.349Z,1024.38
2018-03-28T11:00:06.331Z,1024.42
2018-03-28T11:01:06.326Z,1024.47
2018-03-28T11:02:06.301Z,1024.41
2018-03-28T11:03:06.287Z,1024.41
2018-03-28T11:04:06.273Z,1024.49
2018-03-28T11:05:06.260Z,1024.43
2018-03-28T11:06:06.244Z,1024.46
2018-03-28T11:07:06.230Z,1024.38
2018-03-28T11:08:06.217Z,1024.29
2018-03-28T11:09:06.202Z,1024.21
2018-03-28T11:10:06.190Z,1024.2
2018-03-28T11:11:06.178Z,1024.12
2018-03-28T11:12:06.160Z,1024.13
2018-03-28T11:13:06.153Z,1024.12
2018-03-28T11:14:06.132Z,1024.13
2018-03-28T11:15:06.119Z,1024.08
2018-03-28T11:16:06.105Z,1024.09
2018-03-28T11:17:06.088Z,1024.03
2018-03-28T11:18:06.076Z,1024.02
2018-03-28T11:19:06.060Z,1023.95
2018-03-28T11:20:06.046Z,1023.92
2018-03-28T11:21:06.034Z,1023.89
2018-03-28T11:22:06.018Z,1023.84
2018-03-28T11:23:06.056Z,1023.9
2018-03-28T11:24:06.007Z,1023.82
2018-03-28T11:25:05.975Z,1023.8
2018-03-28T11:26:05.963Z,1023.79
2018-03-28T11:27:05.946Z,1023.65
2018-03-28T11:28:05.933Z,1023.59
2018-03-28T11:29:05.924Z,1023.58
2018-03-28T11:30:05.905Z,1023.59
2018-03-28T11:31:05.890Z,1023.57
2018-03-28T11:32:05.881Z,1023.58
2018-03-28T11:33:05.862Z,1023.61
2018-03-28T11:34:05.852Z,1023.65
2018-03-28T11:35:05.837Z,1023.63
2018-03-28T11:36:05.822Z,1023.66
2018-03-28T11:37:05.819Z,1023.65
2018-03-28T11:38:05.807Z,1023.59
2018-03-28T11:39:05.780Z,1023.47
2018-03-28T11:40:05.781Z,1023.44
2018-03-28T11:41:05.751Z,1023.42
2018-03-28T11:42:05.737Z,1023.46
2018-03-28T11:43:05.724Z,1023.38
2018-03-28T11:44:05.712Z,1023.42
2018-03-28T11:45:05.711Z,1023.4
2018-03-28T11:46:05.683Z,1023.44
2018-03-28T11:47:05.669Z,1023.37
2018-03-28T11:48:05.660Z,1023.47
2018-03-28T11:49:05.641Z,1023.32
2018-03-28T11:50:05.629Z,1023.33
2018-03-28T11:51:05.619Z,1023.3
2018-03-28T11:52:05.610Z,1023.29
2018-03-28T11:53:05.600Z,1023.24
2018-03-28T11:54:05.591Z,1023.24
2018-03-28T11:55:05.566Z,1023.19
2018-03-28T11:56:05.547Z,1023.17
2018-03-28T11:57:05.532Z,1023.23
2018-03-28T11:58:05.519Z,1023.27
2018-03-28T11:59:05.505Z,1023.13
2018-03-28T12:00:05.492Z,1023.13
2018-03-28T12:01:05.478Z,1023.18
2018-03-28T12:02:05.478Z,1023.07
2018-03-28T12:03:05.469Z,1023.1
2018-03-28T12:04:05.448Z,1023.08
2018-03-28T12:05:05.427Z,1023.15
2018-03-28T12:06:05.419Z,1023.15
2018-03-28T12:07:05.399Z,1023.14
2018-03-28T12:08:05.385Z,1023.11